sensor_id;sensor_type;location;lat;lon;timestamp;P1;durP1;ratioP1;P2;durP2;ratioP2
12846;SDS011;6492;48.128;8.320;2023-06-22T00:02:10;9.87;;;8.00;;
12846;SDS011;6492;48.128;8.320;2023-06-22T00:06:14;9.27;;;8.07;;
12846;SDS011;6492;48.128;8.320;2023-06-22T00:10:15;10.43;;;7.73;;
12846;SDS011;6492;48.128;8.320;2023-06-22T00:14:17;12.13;;;8.63;;
12846;SDS011;6492;48.128;8.320;2023-06-22T00:18:19;12.70;;;8.47;;
12846;SDS011;6492;48.128;8.320;2023-06-22T00:22:22;8.70;;;7.50;;
12846;SDS011;6492;48.128;8.320;2023-06-22T00:26:28;11.30;;;8.90;;
12846;SDS011;6492;48.128;8.320;2023-06-22T00:30:30;11.10;;;8.80;;
12846;SDS011;6492;48.128;8.320;2023-06-22T00:34:36;12.88;;;9.32;;
12846;SDS011;6492;48.128;8.320;2023-06-22T00:38:39;13.20;;;9.83;;
12846;SDS011;6492;48.128;8.320;2023-06-22T00:42:41;13.07;;;8.37;;
12846;SDS011;6492;48.128;8.320;2023-06-22T00:46:43;9.33;;;7.67;;
12846;SDS011;6492;48.128;8.320;2023-06-22T00:50:45;7.85;;;7.05;;
12846;SDS011;6492;48.128;8.320;2023-06-22T00:54:51;10.03;;;9.00;;
12846;SDS011;6492;48.128;8.320;2023-06-22T00:58:53;8.27;;;7.20;;
12846;SDS011;6492;48.128;8.320;2023-06-22T01:02:57;10.90;;;8.47;;
12846;SDS011;6492;48.128;8.320;2023-06-22T01:07:02;14.80;;;9.50;;
12846;SDS011;6492;48.128;8.320;2023-06-22T01:11:12;14.07;;;8.43;;
12846;SDS011;6492;48.128;8.320;2023-06-22T01:15:20;14.07;;;9.47;;
12846;SDS011;6492;48.128;8.320;2023-06-22T01:19:29;10.50;;;8.13;;
12846;SDS011;6492;48.128;8.320;2023-06-22T01:23:49;9.47;;;8.00;;
12846;SDS011;6492;48.128;8.320;2023-06-22T01:28:02;10.97;;;9.30;;
12846;SDS011;6492;48.128;8.320;2023-06-22T01:32:16;10.87;;;8.50;;
12846;SDS011;6492;48.128;8.320;2023-06-22T01:36:19;11.93;;;8.37;;
12846;SDS011;6492;48.128;8.320;2023-06-22T01:40:22;11.37;;;8.53;;
12846;SDS011;6492;48.128;8.320;2023-06-22T01:44:25;13.77;;;9.47;;
12846;SDS011;6492;48.128;8.320;2023-06-22T01:48:29;10.77;;;9.37;;
12846;SDS011;6492;48.128;8.320;2023-06-22T01:52:32;10.23;;;8.20;;
12846;SDS011;6492;48.128;8.320;2023-06-22T01:56:34;10.77;;;9.67;;
12846;SDS011;6492;48.128;8.320;2023-06-22T02:00:37;15.70;;;10.77;;
12846;SDS011;6492;48.128;8.320;2023-06-22T02:04:43;14.67;;;10.37;;
12846;SDS011;6492;48.128;8.320;2023-06-22T02:08:49;11.27;;;9.80;;
12846;SDS011;6492;48.128;8.320;2023-06-22T02:12:55;9.33;;;8.27;;
12846;SDS011;6492;48.128;8.320;2023-06-22T02:16:58;13.90;;;9.93;;
12846;SDS011;6492;48.128;8.320;2023-06-22T02:21:02;10.93;;;8.87;;
12846;SDS011;6492;48.128;8.320;2023-06-22T02:25:04;9.70;;;8.33;;
12846;SDS011;6492;48.128;8.320;2023-06-22T02:29:06;9.67;;;8.63;;
12846;SDS011;6492;48.128;8.320;2023-06-22T02:33:08;14.97;;;12.00;;
12846;SDS011;6492;48.128;8.320;2023-06-22T02:37:11;17.73;;;10.30;;
12846;SDS011;6492;48.128;8.320;2023-06-22T02:41:14;13.30;;;10.07;;
12846;SDS011;6492;48.128;8.320;2023-06-22T02:45:18;12.70;;;9.60;;
12846;SDS011;6492;48.128;8.320;2023-06-22T02:49:19;13.87;;;10.23;;
12846;SDS011;6492;48.128;8.320;2023-06-22T02:53:23;13.40;;;11.30;;
12846;SDS011;6492;48.128;8.320;2023-06-22T02:57:24;13.30;;;9.83;;
12846;SDS011;6492;48.128;8.320;2023-06-22T03:01:26;15.37;;;11.37;;
12846;SDS011;6492;48.128;8.320;2023-06-22T03:05:30;16.93;;;11.40;;
12846;SDS011;6492;48.128;8.320;2023-06-22T03:09:34;13.30;;;11.03;;
12846;SDS011;6492;48.128;8.320;2023-06-22T03:13:35;11.87;;;9.60;;
12846;SDS011;6492;48.128;8.320;2023-06-22T03:17:38;19.73;;;12.87;;
12846;SDS011;6492;48.128;8.320;2023-06-22T03:21:41;18.37;;;12.40;;
12846;SDS011;6492;48.128;8.320;2023-06-22T03:25:44;19.63;;;14.03;;
12846;SDS011;6492;48.128;8.320;2023-06-22T03:29:45;20.73;;;13.47;;
12846;SDS011;6492;48.128;8.320;2023-06-22T03:33:47;14.43;;;11.80;;
12846;SDS011;6492;48.128;8.320;2023-06-22T03:37:49;20.40;;;13.50;;
12846;SDS011;6492;48.128;8.320;2023-06-22T03:41:52;21.20;;;14.23;;
12846;SDS011;6492;48.128;8.320;2023-06-22T03:45:54;17.87;;;12.87;;
12846;SDS011;6492;48.128;8.320;2023-06-22T03:49:56;17.10;;;12.47;;
12846;SDS011;6492;48.128;8.320;2023-06-22T03:53:58;16.77;;;12.63;;
12846;SDS011;6492;48.128;8.320;2023-06-22T03:58:01;17.87;;;13.83;;
12846;SDS011;6492;48.128;8.320;2023-06-22T04:02:05;22.43;;;15.77;;
12846;SDS011;6492;48.128;8.320;2023-06-22T04:06:07;21.47;;;15.40;;
12846;SDS011;6492;48.128;8.320;2023-06-22T04:10:09;21.83;;;15.87;;
12846;SDS011;6492;48.128;8.320;2023-06-22T04:14:12;20.83;;;15.10;;
12846;SDS011;6492;48.128;8.320;2023-06-22T04:18:14;26.60;;;16.57;;
12846;SDS011;6492;48.128;8.320;2023-06-22T04:22:16;20.57;;;15.50;;
12846;SDS011;6492;48.128;8.320;2023-06-22T04:26:18;24.77;;;16.83;;
12846;SDS011;6492;48.128;8.320;2023-06-22T04:30:22;22.13;;;15.60;;
12846;SDS011;6492;48.128;8.320;2023-06-22T04:34:28;24.00;;;16.37;;
12846;SDS011;6492;48.128;8.320;2023-06-22T04:38:30;19.73;;;15.17;;
12846;SDS011;6492;48.128;8.320;2023-06-22T04:42:34;21.00;;;16.37;;
12846;SDS011;6492;48.128;8.320;2023-06-22T04:46:38;21.07;;;15.13;;
12846;SDS011;6492;48.128;8.320;2023-06-22T04:50:40;16.77;;;13.47;;
12846;SDS011;6492;48.128;8.320;2023-06-22T04:54:42;18.30;;;13.93;;
12846;SDS011;6492;48.128;8.320;2023-06-22T04:58:47;16.55;;;13.60;;
12846;SDS011;6492;48.128;8.320;2023-06-22T05:02:52;23.60;;;18.67;;
12846;SDS011;6492;48.128;8.320;2023-06-22T05:06:57;22.50;;;17.52;;
12846;SDS011;6492;48.128;8.320;2023-06-22T05:11:00;20.33;;;15.53;;
12846;SDS011;6492;48.128;8.320;2023-06-22T05:15:03;17.90;;;14.52;;
12846;SDS011;6492;48.128;8.320;2023-06-22T05:19:06;17.67;;;14.43;;
12846;SDS011;6492;48.128;8.320;2023-06-22T05:23:08;18.43;;;14.37;;
12846;SDS011;6492;48.128;8.320;2023-06-22T05:27:12;18.50;;;14.83;;
12846;SDS011;6492;48.128;8.320;2023-06-22T05:31:13;18.00;;;13.75;;
12846;SDS011;6492;48.128;8.320;2023-06-22T05:35:17;18.98;;;14.95;;
12846;SDS011;6492;48.128;8.320;2023-06-22T05:39:19;18.77;;;14.00;;
12846;SDS011;6492;48.128;8.320;2023-06-22T05:47:51;18.27;;;13.25;;
12846;SDS011;6492;48.128;8.320;2023-06-22T05:51:54;12.00;;;10.75;;
12846;SDS011;6492;48.128;8.320;2023-06-22T05:55:56;18.60;;;12.35;;
12846;SDS011;6492;48.128;8.320;2023-06-22T06:04:33;11.65;;;9.73;;
12846;SDS011;6492;48.128;8.320;2023-06-22T06:08:37;12.30;;;10.55;;
12846;SDS011;6492;48.128;8.320;2023-06-22T06:12:38;10.95;;;9.70;;
12846;SDS011;6492;48.128;8.320;2023-06-22T06:16:47;9.27;;;7.68;;
12846;SDS011;6492;48.128;8.320;2023-06-22T06:20:49;11.68;;;9.02;;
12846;SDS011;6492;48.128;8.320;2023-06-22T06:24:53;10.23;;;7.95;;
12846;SDS011;6492;48.128;8.320;2023-06-22T06:29:11;12.02;;;7.03;;
12846;SDS011;6492;48.128;8.320;2023-06-22T06:33:16;12.32;;;8.13;;
12846;SDS011;6492;48.128;8.320;2023-06-22T06:37:18;8.70;;;6.80;;
12846;SDS011;6492;48.128;8.320;2023-06-22T06:41:21;8.73;;;6.05;;
12846;SDS011;6492;48.128;8.320;2023-06-22T06:45:23;8.18;;;5.90;;
12846;SDS011;6492;48.128;8.320;2023-06-22T06:49:28;8.65;;;6.35;;
12846;SDS011;6492;48.128;8.320;2023-06-22T06:53:30;9.02;;;6.50;;
12846;SDS011;6492;48.128;8.320;2023-06-22T06:57:33;8.48;;;6.03;;
12846;SDS011;6492;48.128;8.320;2023-06-22T07:01:35;10.07;;;7.63;;
12846;SDS011;6492;48.128;8.320;2023-06-22T07:05:36;10.20;;;6.45;;
12846;SDS011;6492;48.128;8.320;2023-06-22T07:09:38;7.60;;;6.22;;
12846;SDS011;6492;48.128;8.320;2023-06-22T07:13:42;9.10;;;7.20;;
12846;SDS011;6492;48.128;8.320;2023-06-22T07:17:43;8.93;;;6.50;;
12846;SDS011;6492;48.128;8.320;2023-06-22T07:21:45;7.75;;;6.18;;
12846;SDS011;6492;48.128;8.320;2023-06-22T07:25:47;10.13;;;6.30;;
12846;SDS011;6492;48.128;8.320;2023-06-22T07:29:50;8.43;;;6.22;;
12846;SDS011;6492;48.128;8.320;2023-06-22T07:33:52;6.90;;;6.20;;
12846;SDS011;6492;48.128;8.320;2023-06-22T07:37:54;7.68;;;6.30;;
12846;SDS011;6492;48.128;8.320;2023-06-22T07:41:55;7.85;;;6.07;;
12846;SDS011;6492;48.128;8.320;2023-06-22T07:46:16;10.82;;;7.45;;
12846;SDS011;6492;48.128;8.320;2023-06-22T07:50:18;8.32;;;7.10;;
12846;SDS011;6492;48.128;8.320;2023-06-22T07:54:20;9.40;;;6.80;;
12846;SDS011;6492;48.128;8.320;2023-06-22T07:58:21;7.22;;;6.32;;
12846;SDS011;6492;48.128;8.320;2023-06-22T08:02:24;8.85;;;6.07;;
12846;SDS011;6492;48.128;8.320;2023-06-22T08:06:26;12.82;;;6.32;;
12846;SDS011;6492;48.128;8.320;2023-06-22T08:10:31;9.07;;;6.45;;
12846;SDS011;6492;48.128;8.320;2023-06-22T08:14:32;12.35;;;7.03;;
12846;SDS011;6492;48.128;8.320;2023-06-22T08:18:38;7.82;;;5.57;;
12846;SDS011;6492;48.128;8.320;2023-06-22T08:22:39;9.25;;;5.90;;
12846;SDS011;6492;48.128;8.320;2023-06-22T08:26:42;9.15;;;5.32;;
12846;SDS011;6492;48.128;8.320;2023-06-22T08:30:44;10.10;;;5.05;;
12846;SDS011;6492;48.128;8.320;2023-06-22T08:34:47;8.60;;;5.00;;
12846;SDS011;6492;48.128;8.320;2023-06-22T08:38:49;8.25;;;4.80;;
12846;SDS011;6492;48.128;8.320;2023-06-22T08:42:51;8.27;;;5.10;;
12846;SDS011;6492;48.128;8.320;2023-06-22T08:46:53;8.85;;;5.15;;
12846;SDS011;6492;48.128;8.320;2023-06-22T08:50:56;10.40;;;5.10;;
12846;SDS011;6492;48.128;8.320;2023-06-22T08:54:58;10.35;;;4.43;;
12846;SDS011;6492;48.128;8.320;2023-06-22T08:58:59;9.27;;;4.15;;
12846;SDS011;6492;48.128;8.320;2023-06-22T09:03:01;16.42;;;4.72;;
12846;SDS011;6492;48.128;8.320;2023-06-22T09:07:06;9.82;;;4.55;;
12846;SDS011;6492;48.128;8.320;2023-06-22T09:11:08;10.80;;;4.47;;
12846;SDS011;6492;48.128;8.320;2023-06-22T09:15:09;9.90;;;4.68;;
12846;SDS011;6492;48.128;8.320;2023-06-22T09:19:11;12.10;;;4.57;;
12846;SDS011;6492;48.128;8.320;2023-06-22T09:23:15;11.02;;;4.60;;
12846;SDS011;6492;48.128;8.320;2023-06-22T09:27:17;16.25;;;4.90;;
12846;SDS011;6492;48.128;8.320;2023-06-22T09:35:55;12.93;;;5.50;;
12846;SDS011;6492;48.128;8.320;2023-06-22T09:39:59;12.38;;;4.70;;
12846;SDS011;6492;48.128;8.320;2023-06-22T09:44:01;10.70;;;4.80;;
12846;SDS011;6492;48.128;8.320;2023-06-22T09:48:02;8.95;;;4.47;;
12846;SDS011;6492;48.128;8.320;2023-06-22T09:52:05;13.38;;;5.15;;
12846;SDS011;6492;48.128;8.320;2023-06-22T09:56:09;17.05;;;5.97;;
12846;SDS011;6492;48.128;8.320;2023-06-22T10:00:15;15.00;;;5.75;;
12846;SDS011;6492;48.128;8.320;2023-06-22T10:04:18;10.85;;;5.25;;
12846;SDS011;6492;48.128;8.320;2023-06-22T10:08:20;9.70;;;5.20;;
12846;SDS011;6492;48.128;8.320;2023-06-22T10:12:23;9.43;;;5.50;;
12846;SDS011;6492;48.128;8.320;2023-06-22T10:16:30;10.82;;;6.10;;
12846;SDS011;6492;48.128;8.320;2023-06-22T10:20:32;11.25;;;6.25;;
12846;SDS011;6492;48.128;8.320;2023-06-22T10:24:34;8.50;;;6.40;;
12846;SDS011;6492;48.128;8.320;2023-06-22T10:28:37;9.65;;;8.18;;
12846;SDS011;6492;48.128;8.320;2023-06-22T10:32:39;7.95;;;7.05;;
12846;SDS011;6492;48.128;8.320;2023-06-22T10:36:42;10.68;;;6.72;;
12846;SDS011;6492;48.128;8.320;2023-06-22T10:40:46;11.80;;;6.32;;
12846;SDS011;6492;48.128;8.320;2023-06-22T10:44:49;7.78;;;6.10;;
12846;SDS011;6492;48.128;8.320;2023-06-22T10:48:51;8.95;;;6.18;;
12846;SDS011;6492;48.128;8.320;2023-06-22T10:52:55;8.13;;;6.68;;
12846;SDS011;6492;48.128;8.320;2023-06-22T10:56:56;9.52;;;6.57;;
12846;SDS011;6492;48.128;8.320;2023-06-22T11:01:00;10.00;;;6.78;;
12846;SDS011;6492;48.128;8.320;2023-06-22T11:05:03;9.43;;;6.97;;
12846;SDS011;6492;48.128;8.320;2023-06-22T11:09:08;10.05;;;7.05;;
12846;SDS011;6492;48.128;8.320;2023-06-22T11:13:16;7.45;;;6.05;;
12846;SDS011;6492;48.128;8.320;2023-06-22T11:21:40;8.77;;;5.50;;
12846;SDS011;6492;48.128;8.320;2023-06-22T11:25:41;7.57;;;6.10;;
12846;SDS011;6492;48.128;8.320;2023-06-22T11:29:59;12.32;;;6.30;;
12846;SDS011;6492;48.128;8.320;2023-06-22T11:34:02;8.60;;;6.00;;
12846;SDS011;6492;48.128;8.320;2023-06-22T11:42:47;11.63;;;4.30;;
12846;SDS011;6492;48.128;8.320;2023-06-22T11:46:52;10.93;;;4.63;;
12846;SDS011;6492;48.128;8.320;2023-06-22T11:50:56;11.85;;;4.40;;
12846;SDS011;6492;48.128;8.320;2023-06-22T11:54:58;13.45;;;4.32;;
12846;SDS011;6492;48.128;8.320;2023-06-22T11:59:02;11.30;;;4.65;;
12846;SDS011;6492;48.128;8.320;2023-06-22T12:03:05;12.35;;;4.22;;
12846;SDS011;6492;48.128;8.320;2023-06-22T12:07:08;12.70;;;4.20;;
12846;SDS011;6492;48.128;8.320;2023-06-22T12:11:10;9.98;;;4.50;;
12846;SDS011;6492;48.128;8.320;2023-06-22T12:15:21;12.73;;;4.20;;
12846;SDS011;6492;48.128;8.320;2023-06-22T12:19:23;11.77;;;4.80;;
12846;SDS011;6492;48.128;8.320;2023-06-22T12:23:26;9.80;;;4.38;;
12846;SDS011;6492;48.128;8.320;2023-06-22T12:27:28;10.55;;;4.20;;
12846;SDS011;6492;48.128;8.320;2023-06-22T12:31:36;11.43;;;4.50;;
12846;SDS011;6492;48.128;8.320;2023-06-22T12:35:39;10.43;;;3.92;;
12846;SDS011;6492;48.128;8.320;2023-06-22T12:39:43;11.68;;;4.13;;
12846;SDS011;6492;48.128;8.320;2023-06-22T12:43:46;10.77;;;4.10;;
12846;SDS011;6492;48.128;8.320;2023-06-22T12:52:14;6.80;;;4.05;;
12846;SDS011;6492;48.128;8.320;2023-06-22T12:56:17;12.48;;;4.32;;
12846;SDS011;6492;48.128;8.320;2023-06-22T13:00:21;11.10;;;4.25;;
12846;SDS011;6492;48.128;8.320;2023-06-22T13:04:24;9.93;;;4.03;;
12846;SDS011;6492;48.128;8.320;2023-06-22T13:08:26;12.35;;;4.35;;
12846;SDS011;6492;48.128;8.320;2023-06-22T13:12:29;11.98;;;4.18;;
12846;SDS011;6492;48.128;8.320;2023-06-22T13:16:35;11.07;;;4.25;;
12846;SDS011;6492;48.128;8.320;2023-06-22T13:20:37;8.88;;;4.07;;
12846;SDS011;6492;48.128;8.320;2023-06-22T13:24:38;13.18;;;5.00;;
12846;SDS011;6492;48.128;8.320;2023-06-22T13:28:42;8.77;;;4.03;;
12846;SDS011;6492;48.128;8.320;2023-06-22T13:32:56;12.18;;;4.65;;
12846;SDS011;6492;48.128;8.320;2023-06-22T13:36:57;9.60;;;4.72;;
12846;SDS011;6492;48.128;8.320;2023-06-22T13:40:59;8.13;;;4.57;;
12846;SDS011;6492;48.128;8.320;2023-06-22T13:45:02;10.23;;;5.10;;
12846;SDS011;6492;48.128;8.320;2023-06-22T13:49:05;10.35;;;5.85;;
12846;SDS011;6492;48.128;8.320;2023-06-22T13:53:07;9.60;;;5.22;;
12846;SDS011;6492;48.128;8.320;2023-06-22T13:57:08;9.35;;;5.28;;
12846;SDS011;6492;48.128;8.320;2023-06-22T14:01:11;9.32;;;5.07;;
12846;SDS011;6492;48.128;8.320;2023-06-22T14:05:13;6.95;;;5.50;;
12846;SDS011;6492;48.128;8.320;2023-06-22T14:09:15;9.98;;;5.55;;
12846;SDS011;6492;48.128;8.320;2023-06-22T14:13:17;9.27;;;5.53;;
12846;SDS011;6492;48.128;8.320;2023-06-22T14:17:20;9.45;;;5.20;;
12846;SDS011;6492;48.128;8.320;2023-06-22T14:21:25;12.35;;;5.25;;
12846;SDS011;6492;48.128;8.320;2023-06-22T14:25:27;8.25;;;4.97;;
12846;SDS011;6492;48.128;8.320;2023-06-22T14:29:29;10.55;;;5.13;;
12846;SDS011;6492;48.128;8.320;2023-06-22T14:33:32;7.82;;;4.80;;
12846;SDS011;6492;48.128;8.320;2023-06-22T14:37:33;11.40;;;4.72;;
12846;SDS011;6492;48.128;8.320;2023-06-22T14:41:35;8.40;;;4.93;;
12846;SDS011;6492;48.128;8.320;2023-06-22T14:45:37;10.55;;;4.28;;
12846;SDS011;6492;48.128;8.320;2023-06-22T14:49:40;8.95;;;4.75;;
12846;SDS011;6492;48.128;8.320;2023-06-22T14:53:42;10.75;;;5.32;;
12846;SDS011;6492;48.128;8.320;2023-06-22T14:57:45;8.10;;;5.05;;
12846;SDS011;6492;48.128;8.320;2023-06-22T15:01:47;11.30;;;5.28;;
12846;SDS011;6492;48.128;8.320;2023-06-22T15:05:50;9.10;;;4.85;;
12846;SDS011;6492;48.128;8.320;2023-06-22T15:09:52;10.20;;;5.10;;
12846;SDS011;6492;48.128;8.320;2023-06-22T15:13:54;9.48;;;4.93;;
12846;SDS011;6492;48.128;8.320;2023-06-22T15:17:59;8.60;;;4.50;;
12846;SDS011;6492;48.128;8.320;2023-06-22T15:22:06;7.97;;;4.47;;
12846;SDS011;6492;48.128;8.320;2023-06-22T15:26:09;9.32;;;4.05;;
12846;SDS011;6492;48.128;8.320;2023-06-22T15:30:11;9.35;;;4.82;;
12846;SDS011;6492;48.128;8.320;2023-06-22T15:34:15;9.65;;;4.65;;
12846;SDS011;6492;48.128;8.320;2023-06-22T15:38:18;10.82;;;4.18;;
12846;SDS011;6492;48.128;8.320;2023-06-22T15:42:20;8.18;;;4.50;;
12846;SDS011;6492;48.128;8.320;2023-06-22T15:46:22;6.63;;;4.30;;
12846;SDS011;6492;48.128;8.320;2023-06-22T15:50:23;9.13;;;4.05;;
12846;SDS011;6492;48.128;8.320;2023-06-22T15:54:27;7.72;;;3.67;;
12846;SDS011;6492;48.128;8.320;2023-06-22T15:58:28;7.10;;;3.78;;
12846;SDS011;6492;48.128;8.320;2023-06-22T16:02:30;8.38;;;3.47;;
12846;SDS011;6492;48.128;8.320;2023-06-22T16:06:32;7.22;;;3.47;;
12846;SDS011;6492;48.128;8.320;2023-06-22T16:10:35;7.93;;;3.50;;
12846;SDS011;6492;48.128;8.320;2023-06-22T16:14:39;10.52;;;7.45;;
12846;SDS011;6492;48.128;8.320;2023-06-22T16:18:42;8.48;;;3.78;;
12846;SDS011;6492;48.128;8.320;2023-06-22T16:22:43;11.52;;;3.80;;
12846;SDS011;6492;48.128;8.320;2023-06-22T16:26:47;7.28;;;3.70;;
12846;SDS011;6492;48.128;8.320;2023-06-22T16:35:22;5.18;;;2.97;;
12846;SDS011;6492;48.128;8.320;2023-06-22T16:39:24;5.13;;;2.67;;
12846;SDS011;6492;48.128;8.320;2023-06-22T16:43:27;6.72;;;3.13;;
12846;SDS011;6492;48.128;8.320;2023-06-22T16:47:36;5.65;;;3.17;;
12846;SDS011;6492;48.128;8.320;2023-06-22T16:51:37;5.47;;;2.63;;
12846;SDS011;6492;48.128;8.320;2023-06-22T16:55:39;9.45;;;3.30;;
12846;SDS011;6492;48.128;8.320;2023-06-22T16:59:43;6.05;;;3.13;;
12846;SDS011;6492;48.128;8.320;2023-06-22T17:03:47;7.18;;;3.40;;
12846;SDS011;6492;48.128;8.320;2023-06-22T17:07:56;6.80;;;3.10;;
12846;SDS011;6492;48.128;8.320;2023-06-22T17:12:02;5.20;;;2.70;;
12846;SDS011;6492;48.128;8.320;2023-06-22T17:16:06;6.20;;;3.10;;
12846;SDS011;6492;48.128;8.320;2023-06-22T17:20:10;4.82;;;3.13;;
12846;SDS011;6492;48.128;8.320;2023-06-22T17:28:48;7.15;;;3.20;;
12846;SDS011;6492;48.128;8.320;2023-06-22T17:32:52;4.47;;;2.65;;
12846;SDS011;6492;48.128;8.320;2023-06-22T17:36:54;5.97;;;2.95;;
12846;SDS011;6492;48.128;8.320;2023-06-22T17:41:00;5.97;;;3.13;;
12846;SDS011;6492;48.128;8.320;2023-06-22T17:45:02;4.93;;;3.03;;
12846;SDS011;6492;48.128;8.320;2023-06-22T17:49:07;4.20;;;2.80;;
12846;SDS011;6492;48.128;8.320;2023-06-22T17:53:12;5.72;;;3.15;;
12846;SDS011;6492;48.128;8.320;2023-06-22T17:57:16;6.18;;;3.38;;
12846;SDS011;6492;48.128;8.320;2023-06-22T18:05:54;6.32;;;3.42;;
12846;SDS011;6492;48.128;8.320;2023-06-22T18:10:06;5.28;;;3.40;;
12846;SDS011;6492;48.128;8.320;2023-06-22T18:22:41;8.48;;;4.47;;
12846;SDS011;6492;48.128;8.320;2023-06-22T18:26:54;4.70;;;3.35;;
12846;SDS011;6492;48.128;8.320;2023-06-22T18:30:57;4.43;;;2.22;;
12846;SDS011;6492;48.128;8.320;2023-06-22T18:39:45;1.30;;;1.20;;
12846;SDS011;6492;48.128;8.320;2023-06-22T18:43:59;1.83;;;1.30;;
12846;SDS011;6492;48.128;8.320;2023-06-22T18:48:01;3.28;;;1.50;;
12846;SDS011;6492;48.128;8.320;2023-06-22T18:52:14;2.88;;;1.65;;
12846;SDS011;6492;48.128;8.320;2023-06-22T19:19:11;4.57;;;2.80;;
12846;SDS011;6492;48.128;8.320;2023-06-22T19:23:23;4.80;;;3.30;;
12846;SDS011;6492;48.128;8.320;2023-06-22T19:27:29;4.63;;;3.53;;
12846;SDS011;6492;48.128;8.320;2023-06-22T19:31:32;4.83;;;3.47;;
12846;SDS011;6492;48.128;8.320;2023-06-22T19:35:35;5.87;;;3.50;;
12846;SDS011;6492;48.128;8.320;2023-06-22T19:39:45;4.83;;;3.50;;
12846;SDS011;6492;48.128;8.320;2023-06-22T19:43:47;5.83;;;3.50;;
12846;SDS011;6492;48.128;8.320;2023-06-22T19:47:50;5.27;;;4.17;;
12846;SDS011;6492;48.128;8.320;2023-06-22T19:52:05;5.83;;;3.93;;
12846;SDS011;6492;48.128;8.320;2023-06-22T19:56:07;4.87;;;4.00;;
12846;SDS011;6492;48.128;8.320;2023-06-22T20:00:09;4.43;;;3.67;;
12846;SDS011;6492;48.128;8.320;2023-06-22T20:04:14;5.10;;;3.80;;
12846;SDS011;6492;48.128;8.320;2023-06-22T20:08:18;4.43;;;3.97;;
12846;SDS011;6492;48.128;8.320;2023-06-22T20:12:24;7.70;;;4.40;;
12846;SDS011;6492;48.128;8.320;2023-06-22T20:16:29;4.83;;;4.00;;
12846;SDS011;6492;48.128;8.320;2023-06-22T20:20:32;3.90;;;3.50;;
12846;SDS011;6492;48.128;8.320;2023-06-22T20:28:46;3.40;;;3.10;;
12846;SDS011;6492;48.128;8.320;2023-06-22T20:32:49;5.87;;;3.83;;
12846;SDS011;6492;48.128;8.320;2023-06-22T20:36:54;6.13;;;3.50;;
12846;SDS011;6492;48.128;8.320;2023-06-22T20:40:55;3.53;;;3.00;;
12846;SDS011;6492;48.128;8.320;2023-06-22T20:44:57;5.87;;;3.77;;
12846;SDS011;6492;48.128;8.320;2023-06-22T20:48:59;4.13;;;3.57;;
12846;SDS011;6492;48.128;8.320;2023-06-22T20:53:03;4.50;;;3.37;;
12846;SDS011;6492;48.128;8.320;2023-06-22T20:57:06;3.70;;;3.27;;
12846;SDS011;6492;48.128;8.320;2023-06-22T21:01:07;4.90;;;3.43;;
12846;SDS011;6492;48.128;8.320;2023-06-22T21:05:10;3.33;;;3.03;;
12846;SDS011;6492;48.128;8.320;2023-06-22T21:09:13;5.27;;;2.77;;
12846;SDS011;6492;48.128;8.320;2023-06-22T21:13:24;4.57;;;3.00;;
12846;SDS011;6492;48.128;8.320;2023-06-22T21:17:26;4.37;;;2.87;;
12846;SDS011;6492;48.128;8.320;2023-06-22T21:21:28;3.07;;;2.60;;
12846;SDS011;6492;48.128;8.320;2023-06-22T21:25:39;4.83;;;2.50;;
12846;SDS011;6492;48.128;8.320;2023-06-22T21:29:42;3.20;;;2.77;;
12846;SDS011;6492;48.128;8.320;2023-06-22T21:38:07;5.00;;;2.53;;
12846;SDS011;6492;48.128;8.320;2023-06-22T21:42:11;3.37;;;2.67;;
12846;SDS011;6492;48.128;8.320;2023-06-22T21:50:37;2.90;;;2.60;;
12846;SDS011;6492;48.128;8.320;2023-06-22T21:54:39;4.13;;;2.80;;
12846;SDS011;6492;48.128;8.320;2023-06-22T21:58:42;4.23;;;2.77;;
12846;SDS011;6492;48.128;8.320;2023-06-22T22:02:44;5.13;;;2.57;;
12846;SDS011;6492;48.128;8.320;2023-06-22T22:06:46;3.37;;;2.60;;
12846;SDS011;6492;48.128;8.320;2023-06-22T22:10:50;2.50;;;2.30;;
12846;SDS011;6492;48.128;8.320;2023-06-22T22:14:53;2.23;;;2.03;;
12846;SDS011;6492;48.128;8.320;2023-06-22T22:18:55;3.53;;;2.73;;
12846;SDS011;6492;48.128;8.320;2023-06-22T22:22:57;3.03;;;2.30;;
12846;SDS011;6492;48.128;8.320;2023-06-22T22:26:59;2.53;;;2.30;;
12846;SDS011;6492;48.128;8.320;2023-06-22T22:31:02;1.70;;;1.60;;
12846;SDS011;6492;48.128;8.320;2023-06-22T22:35:04;1.23;;;1.13;;
12846;SDS011;6492;48.128;8.320;2023-06-22T22:39:07;0.97;;;0.97;;
12846;SDS011;6492;48.128;8.320;2023-06-22T22:43:10;2.37;;;1.20;;
12846;SDS011;6492;48.128;8.320;2023-06-22T22:47:13;1.33;;;1.10;;
12846;SDS011;6492;48.128;8.320;2023-06-22T22:51:15;0.70;;;0.70;;
12846;SDS011;6492;48.128;8.320;2023-06-22T22:55:17;0.80;;;0.80;;
12846;SDS011;6492;48.128;8.320;2023-06-22T22:59:19;0.60;;;0.60;;
12846;SDS011;6492;48.128;8.320;2023-06-22T23:03:22;1.03;;;0.90;;
12846;SDS011;6492;48.128;8.320;2023-06-22T23:07:24;0.30;;;0.30;;
12846;SDS011;6492;48.128;8.320;2023-06-22T23:11:28;1.83;;;0.50;;
12846;SDS011;6492;48.128;8.320;2023-06-22T23:15:29;0.40;;;0.40;;
12846;SDS011;6492;48.128;8.320;2023-06-22T23:19:33;0.40;;;0.40;;
12846;SDS011;6492;48.128;8.320;2023-06-22T23:23:35;0.40;;;0.30;;
12846;SDS011;6492;48.128;8.320;2023-06-22T23:27:37;0.40;;;0.40;;
12846;SDS011;6492;48.128;8.320;2023-06-22T23:31:39;0.40;;;0.40;;
12846;SDS011;6492;48.128;8.320;2023-06-22T23:35:46;0.33;;;0.33;;
12846;SDS011;6492;48.128;8.320;2023-06-22T23:39:48;0.80;;;0.57;;
12846;SDS011;6492;48.128;8.320;2023-06-22T23:43:50;1.13;;;0.30;;
12846;SDS011;6492;48.128;8.320;2023-06-22T23:47:53;1.40;;;1.30;;
12846;SDS011;6492;48.128;8.320;2023-06-22T23:51:56;2.30;;;2.10;;
12846;SDS011;6492;48.128;8.320;2023-06-22T23:55:58;2.57;;;2.37;;
